createdAt,value
2022-09-18T00:01:01.931Z,94656.52
2022-09-18T00:03:40.473Z,94665.81
2022-09-18T00:06:14.205Z,94653.48
2022-09-18T00:08:44.632Z,94649.92
2022-09-18T00:11:28.582Z,94653.47
2022-09-18T00:13:56.656Z,94667.77
2022-09-18T00:16:25.015Z,94686.85
2022-09-18T00:18:54.034Z,94690.87
2022-09-18T00:21:23.947Z,94702.61
2022-09-18T00:24:08.192Z,94716.13
2022-09-18T00:26:44.660Z,94712.58
2022-09-18T00:29:34.106Z,94733.09
2022-09-18T00:32:01.296Z,94729.18
2022-09-18T00:34:27.889Z,94734.23
2022-09-18T00:36:54.524Z,94749.70
2022-09-18T00:39:21.280Z,94755.08
2022-09-18T00:41:47.691Z,94760.10
2022-09-18T00:44:33.706Z,94769.67
2022-09-18T00:47:20.317Z,94783.38
2022-09-18T00:50:14.789Z,94787.63
2022-09-18T00:52:51.731Z,94768.48
2022-09-18T00:55:26.952Z,94747.79
2022-09-18T00:58:08.857Z,94763.39
2022-09-18T01:00:43.344Z,94775.06
2022-09-18T01:03:11.959Z,94773.02
2022-09-18T01:06:00.089Z,94769.52
2022-09-18T01:08:49.931Z,94762.61
2022-09-18T01:11:37.716Z,94753.54
2022-09-18T01:14:16.700Z,94758.95
2022-09-18T01:16:59.976Z,94775.86
2022-09-18T01:20:06.385Z,94788.33
2022-09-18T01:23:09.756Z,94784.20
2022-09-18T01:25:58.180Z,94783.15
2022-09-18T01:28:42.453Z,94792.90
2022-09-18T01:31:19.669Z,94782.41
2022-09-18T01:34:09.285Z,94781.89
2022-09-18T01:36:39.014Z,94795.46
2022-09-18T01:39:42.729Z,94797.95
2022-09-18T01:42:14.472Z,94797.27
2022-09-18T01:44:47.045Z,94806.86
2022-09-18T01:47:15.816Z,94809.56
2022-09-18T01:49:47.390Z,94820.44
2022-09-18T01:52:25.621Z,94826.45
2022-09-18T01:54:57.293Z,94832.30
2022-09-18T01:57:34.348Z,94838.83
2022-09-18T02:00:10.930Z,94841.79
2022-09-18T02:03:14.620Z,94842.10
2022-09-18T02:05:48.731Z,94848.05
2022-09-18T02:08:38.320Z,94853.93
2022-09-18T02:11:10.806Z,94851.83
2022-09-18T02:13:59.449Z,94855.48
2022-09-18T02:17:00.408Z,94868.02
2022-09-18T02:19:47.002Z,94873.86
2022-09-18T02:22:19.249Z,94871.04
2022-09-18T02:24:50.105Z,94877.17
2022-09-18T02:27:19.321Z,94890.00
2022-09-18T02:30:06.487Z,94874.14
2022-09-18T02:32:37.502Z,94890.83
2022-09-18T02:35:08.253Z,94889.84
2022-09-18T02:38:06.775Z,94897.10
2022-09-18T02:40:56.081Z,94907.55
2022-09-18T02:43:41.997Z,94917.48
2022-09-18T02:46:36.437Z,94921.95
2022-09-18T02:49:13.547Z,94931.23
2022-09-18T02:51:55.928Z,94931.36
2022-09-18T02:54:48.369Z,94932.31
2022-09-18T02:57:33.423Z,94949.23
2022-09-18T03:00:12.995Z,94956.74
2022-09-18T03:02:42.556Z,94965.55
2022-09-18T03:05:11.211Z,94972.30
2022-09-18T03:08:04.954Z,94982.78
2022-09-18T03:10:38.970Z,94988.09
2022-09-18T03:13:09.822Z,94994.94
2022-09-18T03:15:38.195Z,95005.81
2022-09-18T03:18:09.649Z,95004.95
2022-09-18T03:21:04.187Z,95006.23
2022-09-18T03:23:45.397Z,95014.21
2022-09-18T03:26:51.988Z,95018.15
2022-09-18T03:29:34.125Z,95017.16
2022-09-18T03:32:02.756Z,95025.71
2022-09-18T03:34:43.368Z,95023.31
2022-09-18T03:37:13.392Z,95019.13
2022-09-18T03:39:41.970Z,95026.45
2022-09-18T03:42:14.509Z,95017.77
2022-09-18T03:44:42.112Z,95020.13
2022-09-18T03:47:36.588Z,95023.95
2022-09-18T03:50:26.585Z,95028.85
2022-09-18T03:53:08.389Z,95022.27
2022-09-18T03:56:04.259Z,95022.12
2022-09-18T03:58:45.050Z,95022.64
2022-09-18T04:01:39.204Z,95024.41
2022-09-18T04:04:23.635Z,95029.31
2022-09-18T04:07:31.990Z,95037.63
2022-09-18T04:10:36.030Z,95043.90
2022-09-18T04:13:19.281Z,95046.04
2022-09-18T04:16:01.786Z,95060.19
2022-09-18T04:18:56.877Z,95060.09
2022-09-18T04:22:03.906Z,95059.00
2022-09-18T04:25:18.924Z,95069.03
2022-09-18T04:31:48.186Z,95071.12
2022-09-18T04:38:09.914Z,95086.38
2022-09-18T04:41:08.886Z,95082.34
2022-09-18T04:48:40.920Z,95094.42
2022-09-18T04:51:54.880Z,95094.84
2022-09-18T04:54:53.876Z,95106.55
2022-09-18T04:57:54.607Z,95112.39
2022-09-18T05:00:54.009Z,95120.39
2022-09-18T05:04:06.971Z,95127.86
2022-09-18T05:07:19.915Z,95131.67
2022-09-18T05:10:30.882Z,95135.70
2022-09-18T05:13:27.934Z,95141.05
2022-09-18T05:16:37.954Z,95141.06
2022-09-18T05:20:09.359Z,95145.35
2022-09-18T05:23:19.936Z,95154.91
2022-09-18T05:26:30.943Z,95167.84
2022-09-18T05:33:12.550Z,95180.85
2022-09-18T05:35:41.845Z,95190.15
2022-09-18T05:38:11.067Z,95193.21
2022-09-18T05:40:41.983Z,95192.04
2022-09-18T05:43:09.270Z,95194.80
2022-09-18T05:45:36.566Z,95205.61
2022-09-18T05:48:12.544Z,95202.56
2022-09-18T05:50:39.730Z,95202.02
2022-09-18T05:53:11.541Z,95204.16
2022-09-18T05:56:00.018Z,95216.64
2022-09-18T05:58:26.666Z,95210.46
2022-09-18T06:01:01.571Z,95217.36
2022-09-18T06:03:35.701Z,95224.88
2022-09-18T06:06:02.669Z,95226.14
2022-09-18T06:08:29.410Z,95225.10
2022-09-18T06:11:03.019Z,95232.41
2022-09-18T06:13:30.735Z,95232.11
2022-09-18T06:15:57.711Z,95235.41
2022-09-18T06:18:39.277Z,95240.96
2022-09-18T06:21:07.721Z,95239.36
2022-09-18T06:23:35.382Z,95248.14
2022-09-18T06:26:11.427Z,95245.45
2022-09-18T06:28:41.158Z,95256.68
2022-09-18T06:31:11.268Z,95256.60
2022-09-18T06:33:48.420Z,95263.67
2022-09-18T06:36:17.297Z,95270.38
2022-09-18T06:39:23.672Z,95273.67
2022-09-18T06:41:59.806Z,95273.61
2022-09-18T06:45:01.563Z,95274.72
2022-09-18T06:47:29.823Z,95275.91
2022-09-18T06:49:56.642Z,95280.82
2022-09-18T06:52:29.931Z,95284.68
2022-09-18T06:54:57.721Z,95286.83
2022-09-18T06:57:32.468Z,95290.89
2022-09-18T06:59:59.760Z,95293.48
2022-09-18T07:02:29.051Z,95295.52
2022-09-18T07:05:00.635Z,95300.41
2022-09-18T07:07:32.629Z,95293.22
2022-09-18T07:10:02.180Z,95301.58
2022-09-18T07:12:41.310Z,95300.55
2022-09-18T07:15:10.130Z,95301.85
2022-09-18T07:17:36.640Z,95308.70
2022-09-18T07:20:04.156Z,95303.95
2022-09-18T07:22:40.888Z,95306.56
2022-09-18T07:25:11.138Z,95305.49
2022-09-18T07:27:41.918Z,95317.48
2022-09-18T07:30:11.429Z,95317.36
2022-09-18T07:32:38.612Z,95317.62
2022-09-18T07:35:12.549Z,95322.73
2022-09-18T07:37:42.486Z,95327.67
2022-09-18T07:40:16.263Z,95331.92
2022-09-18T07:43:03.714Z,95331.20
2022-09-18T07:45:30.426Z,95334.33
2022-09-18T07:48:19.605Z,95341.46
2022-09-18T07:50:49.688Z,95341.98
2022-09-18T07:53:18.004Z,95339.17
2022-09-18T07:55:47.362Z,95343.44
2022-09-18T07:58:17.362Z,95338.52
2022-09-18T08:00:54.660Z,95341.78
2022-09-18T08:03:24.827Z,95351.58
2022-09-18T08:06:36.948Z,95348.96
2022-09-18T08:09:16.474Z,95348.27
2022-09-18T08:11:55.618Z,95350.12
2022-09-18T08:14:35.770Z,95359.13
2022-09-18T08:17:22.799Z,95356.93
2022-09-18T08:20:25.958Z,95363.66
2022-09-18T08:23:19.521Z,95368.31
2022-09-18T08:26:22.554Z,95374.96
2022-09-18T08:29:31.310Z,95374.95
2022-09-18T08:32:29.272Z,95372.52
2022-09-18T08:35:03.208Z,95377.52
2022-09-18T08:37:55.521Z,95376.05
2022-09-18T08:40:55.455Z,95382.86
2022-09-18T08:43:54.823Z,95386.23
2022-09-18T08:46:43.580Z,95380.95
2022-09-18T08:49:30.515Z,95382.96
2022-09-18T08:52:15.420Z,95380.36
2022-09-18T08:55:05.112Z,95384.73
2022-09-18T08:57:54.409Z,95392.45
2022-09-18T09:00:49.695Z,95389.57
2022-09-18T09:03:42.980Z,95395.04
2022-09-18T09:06:43.483Z,95399.56
2022-09-18T09:09:59.468Z,95398.06
2022-09-18T09:12:48.937Z,95412.48
2022-09-18T09:15:33.839Z,95414.58
2022-09-18T09:18:16.745Z,95409.98
2022-09-18T09:20:57.223Z,95417.23
2022-09-18T09:24:04.196Z,95415.48
2022-09-18T09:27:00.829Z,95429.64
2022-09-18T09:29:54.439Z,95425.04
2022-09-18T09:32:41.429Z,95430.10
2022-09-18T09:35:27.055Z,95442.15
2022-09-18T09:38:19.382Z,95448.54
2022-09-18T09:40:50.351Z,95457.89
2022-09-18T09:43:29.083Z,95455.67
2022-09-18T09:46:02.550Z,95470.45
2022-09-18T09:48:40.763Z,95472.87
2022-09-18T09:51:21.631Z,95486.09
2022-09-18T09:53:49.374Z,95470.32
2022-09-18T09:56:28.121Z,95474.69
2022-09-18T09:59:16.568Z,95482.30
2022-09-18T10:02:39.707Z,95486.30
2022-09-18T10:05:28.806Z,95490.27
2022-09-18T10:08:12.712Z,95491.65
2022-09-18T10:10:48.657Z,95495.64
2022-09-18T10:13:41.006Z,95496.64
2022-09-18T10:16:22.432Z,95508.10
2022-09-18T10:18:49.794Z,95509.56
2022-09-18T10:21:21.355Z,95514.22
2022-09-18T10:23:55.145Z,95512.59
2022-09-18T10:26:29.534Z,95516.72
2022-09-18T10:28:56.207Z,95523.92
2022-09-18T10:31:22.941Z,95532.65
2022-09-18T10:33:52.730Z,95536.66
2022-09-18T10:36:38.770Z,95534.19
2022-09-18T10:39:31.704Z,95543.46
2022-09-18T10:42:05.956Z,95546.19
2022-09-18T10:44:39.416Z,95544.33
2022-09-18T10:47:21.272Z,95554.67
2022-09-18T10:50:06.624Z,95568.55
2022-09-18T10:52:53.721Z,95567.89
2022-09-18T10:55:26.868Z,95566.02
2022-09-18T10:58:07.567Z,95571.48
2022-09-18T11:00:39.419Z,95576.88
2022-09-18T11:03:23.680Z,95573.91
2022-09-18T11:06:04.259Z,95578.30
2022-09-18T11:08:36.520Z,95576.61
2022-09-18T11:11:06.923Z,95578.34
2022-09-18T11:13:50.218Z,95576.14
2022-09-18T11:16:25.391Z,95579.25
2022-09-18T11:19:19.730Z,95576.44
2022-09-18T11:21:50.817Z,95575.65
2022-09-18T11:24:23.541Z,95577.31
2022-09-18T11:26:53.774Z,95571.94
2022-09-18T11:29:31.238Z,95580.02
2022-09-18T11:32:18.229Z,95580.44
2022-09-18T11:34:57.238Z,95571.15
2022-09-18T11:37:46.767Z,95582.00
2022-09-18T11:40:44.303Z,95570.85
2022-09-18T11:43:18.523Z,95574.20
2022-09-18T11:46:11.224Z,95580.86
2022-09-18T11:49:13.496Z,95594.01
2022-09-18T11:52:05.074Z,95587.46
2022-09-18T11:55:03.898Z,95584.34
2022-09-18T11:58:01.333Z,95593.65
2022-09-18T12:00:53.600Z,95589.64
2022-09-18T12:03:31.299Z,95593.17
2022-09-18T12:06:20.699Z,95584.56
2022-09-18T12:09:17.113Z,95580.38
2022-09-18T12:12:15.818Z,95594.84
2022-09-18T12:15:07.774Z,95593.27
2022-09-18T12:17:43.279Z,95587.77
2022-09-18T12:20:31.782Z,95599.69
2022-09-18T12:23:23.012Z,95611.66
2022-09-18T12:26:25.364Z,95602.32
2022-09-18T12:29:13.428Z,95602.57
2022-09-18T12:32:30.473Z,95610.70
2022-09-18T12:35:27.849Z,95610.73
2022-09-18T12:38:41.912Z,95599.14
2022-09-18T12:41:49.431Z,95600.48
2022-09-18T12:44:36.944Z,95609.03
2022-09-18T12:47:35.728Z,95602.95
2022-09-18T12:50:38.922Z,95609.86
2022-09-18T12:53:38.506Z,95612.94
2022-09-18T12:56:34.543Z,95624.08
2022-09-18T12:59:29.393Z,95622.76
2022-09-18T13:02:19.634Z,95640.27
2022-09-18T13:05:11.724Z,95639.63
2022-09-18T13:07:46.344Z,95644.46
2022-09-18T13:10:37.358Z,95653.41
2022-09-18T13:13:27.733Z,95653.36
2022-09-18T13:16:12.727Z,95660.48
2022-09-18T13:19:25.744Z,95669.30
2022-09-18T13:22:28.505Z,95680.17
2022-09-18T13:25:33.118Z,95693.25
2022-09-18T13:28:14.320Z,95685.08
2022-09-18T13:31:20.682Z,95682.85
2022-09-18T13:34:10.425Z,95688.86
2022-09-18T13:36:42.181Z,95694.40
2022-09-18T13:39:50.592Z,95690.68
2022-09-18T13:43:00.859Z,95694.77
2022-09-18T13:46:07.617Z,95693.71
2022-09-18T13:48:56.348Z,95691.09
2022-09-18T13:51:50.428Z,95700.05
2022-09-18T13:54:42.663Z,95696.66
2022-09-18T13:58:09.918Z,95702.94
2022-09-18T14:00:40.384Z,95716.26
2022-09-18T14:03:46.955Z,95728.82
2022-09-18T14:06:43.074Z,95716.23
2022-09-18T14:09:37.522Z,95717.88
2022-09-18T14:12:15.928Z,95717.58
2022-09-18T14:14:55.965Z,95720.91
2022-09-18T14:17:25.292Z,95722.63
2022-09-18T14:20:07.714Z,95728.14
2022-09-18T14:22:48.721Z,95731.27
2022-09-18T14:25:44.463Z,95730.41
2022-09-18T14:28:16.908Z,95724.14
2022-09-18T14:31:04.460Z,95724.52
2022-09-18T14:33:33.207Z,95736.94
2022-09-18T14:36:09.979Z,95727.88
2022-09-18T14:38:59.988Z,95727.48
2022-09-18T14:41:40.548Z,95724.49
2022-09-18T14:44:16.856Z,95727.16
2022-09-18T14:46:53.693Z,95726.09
2022-09-18T14:49:37.839Z,95719.18
2022-09-18T14:52:20.420Z,95721.16
2022-09-18T14:54:56.265Z,95730.09
2022-09-18T14:57:36.210Z,95732.72
2022-09-18T15:00:07.596Z,95735.55
2022-09-18T15:02:35.836Z,95732.13
2022-09-18T15:05:10.566Z,95736.15
2022-09-18T15:07:40.231Z,95745.35
2022-09-18T15:10:13.884Z,95747.38
2022-09-18T15:12:42.816Z,95746.33
2022-09-18T15:15:28.541Z,95748.19
2022-09-18T15:17:56.467Z,95741.42
2022-09-18T15:20:25.032Z,95749.23
2022-09-18T15:22:52.831Z,95750.90
2022-09-18T15:25:24.123Z,95755.73
2022-09-18T15:27:53.187Z,95755.42
2022-09-18T15:30:23.161Z,95758.63
2022-09-18T15:32:58.652Z,95759.11
2022-09-18T15:35:39.719Z,95760.61
2022-09-18T15:38:15.418Z,95766.27
2022-09-18T15:40:46.758Z,95767.70
2022-09-18T15:43:40.421Z,95765.77
2022-09-18T15:46:11.269Z,95774.63
2022-09-18T15:48:43.500Z,95767.46
2022-09-18T15:51:24.043Z,95770.54
2022-09-18T15:54:30.331Z,95768.14
2022-09-18T15:57:00.168Z,95771.71
2022-09-18T15:59:36.106Z,95760.54
2022-09-18T16:02:18.595Z,95755.95
2022-09-18T16:04:48.879Z,95755.58
2022-09-18T16:07:22.009Z,95758.57
2022-09-18T16:09:50.262Z,95755.99
2022-09-18T16:12:35.795Z,95753.98
2022-09-18T16:15:16.462Z,95757.08
2022-09-18T16:18:19.117Z,95756.64
2022-09-18T16:21:08.174Z,95750.48
2022-09-18T16:23:50.495Z,95759.84
2022-09-18T16:26:53.473Z,95756.43
2022-09-18T16:29:22.609Z,95756.74
2022-09-18T16:31:49.128Z,95764.55
2022-09-18T16:34:21.594Z,95759.52
2022-09-18T16:36:48.657Z,95758.14
2022-09-18T16:39:18.197Z,95759.18
2022-09-18T16:41:49.892Z,95757.29
2022-09-18T16:44:18.368Z,95766.41
2022-09-18T16:47:07.249Z,95764.35
2022-09-18T16:49:54.743Z,95771.64
2022-09-18T16:52:21.163Z,95780.61
2022-09-18T16:54:47.732Z,95785.08
2022-09-18T16:57:22.269Z,95796.65
2022-09-18T16:59:54.024Z,95800.73
2022-09-18T17:02:25.383Z,95818.67
2022-09-18T17:04:53.459Z,95831.30
2022-09-18T17:07:20.159Z,95833.05
2022-09-18T17:09:47.543Z,95826.77
2022-09-18T17:12:27.880Z,95823.35
2022-09-18T17:14:55.747Z,95827.64
2022-09-18T17:17:23.266Z,95831.09
2022-09-18T17:19:49.838Z,95839.11
2022-09-18T17:22:19.931Z,95841.26
2022-09-18T17:24:50.631Z,95837.41
2022-09-18T17:27:25.230Z,95842.02
2022-09-18T17:29:53.847Z,95835.07
2022-09-18T17:32:20.838Z,95840.38
2022-09-18T17:34:47.353Z,95837.14
2022-09-18T17:37:13.887Z,95843.89
2022-09-18T17:39:41.424Z,95840.16
2022-09-18T17:42:07.966Z,95843.94
2022-09-18T17:45:26.326Z,95843.80
2022-09-18T17:48:28.870Z,95847.61
2022-09-18T17:51:40.936Z,95850.00
2022-09-18T17:54:13.018Z,95853.16
2022-09-18T17:56:39.775Z,95856.55
2022-09-18T17:59:24.277Z,95858.02
2022-09-18T18:01:51.217Z,95861.65
2022-09-18T18:04:18.399Z,95862.97
2022-09-18T18:06:48.055Z,95872.61
2022-09-18T18:09:15.508Z,95871.83
2022-09-18T18:11:43.606Z,95874.90
2022-09-18T18:14:10.383Z,95879.14
2022-09-18T18:16:37.544Z,95881.12
2022-09-18T18:19:14.791Z,95888.52
2022-09-18T18:21:42.762Z,95884.87
2022-09-18T18:24:14.327Z,95886.80
2022-09-18T18:26:49.631Z,95881.59
2022-09-18T18:29:18.482Z,95879.88
2022-09-18T18:31:47.812Z,95883.19
2022-09-18T18:34:20.647Z,95888.21
2022-09-18T18:37:16.972Z,95893.69
2022-09-18T18:39:47.496Z,95895.09
2022-09-18T18:42:14.522Z,95896.99
2022-09-18T18:44:45.401Z,95899.52
2022-09-18T18:47:13.732Z,95905.66
2022-09-18T18:49:40.366Z,95901.35
2022-09-18T18:52:07.210Z,95901.30
2022-09-18T18:54:34.899Z,95900.50
2022-09-18T18:57:02.587Z,95900.13
2022-09-18T18:59:29.421Z,95903.40
2022-09-18T19:01:57.260Z,95905.79
2022-09-18T19:04:25.426Z,95901.17
2022-09-18T19:06:53.325Z,95901.59
2022-09-18T19:09:23.700Z,95897.30
2022-09-18T19:11:52.285Z,95892.05
2022-09-18T19:14:25.234Z,95896.29
2022-09-18T19:16:54.946Z,95896.90
2022-09-18T19:19:23.959Z,95898.27
2022-09-18T19:21:51.637Z,95902.66
2022-09-18T19:24:22.117Z,95899.59
2022-09-18T19:26:49.751Z,95900.25
2022-09-18T19:29:18.673Z,95897.94
2022-09-18T19:32:01.012Z,95894.97
2022-09-18T19:34:29.054Z,95894.37
2022-09-18T19:36:56.006Z,95894.80
2022-09-18T19:39:23.967Z,95895.63
2022-09-18T19:42:09.975Z,95889.60
2022-09-18T19:44:44.286Z,95893.19
2022-09-18T19:47:30.452Z,95892.33
2022-09-18T19:49:58.953Z,95898.09
2022-09-18T19:52:27.911Z,95899.20
2022-09-18T19:54:56.656Z,95902.21
2022-09-18T19:57:25.483Z,95906.06
2022-09-18T20:00:09.164Z,95902.77
2022-09-18T20:02:39.247Z,95907.10
2022-09-18T20:05:09.028Z,95909.08
2022-09-18T20:08:11.332Z,95913.52
2022-09-18T20:10:58.513Z,95913.06
2022-09-18T20:13:25.685Z,95915.63
2022-09-18T20:16:26.993Z,95919.88
2022-09-18T20:18:54.041Z,95920.25
2022-09-18T20:21:24.803Z,95921.44
2022-09-18T20:23:56.639Z,95919.58
2022-09-18T20:26:24.223Z,95922.27
2022-09-18T20:28:51.500Z,95921.98
2022-09-18T20:31:19.979Z,95929.66
2022-09-18T20:33:54.865Z,95939.13
2022-09-18T20:36:23.396Z,95939.41
2022-09-18T20:39:00.329Z,95941.33
2022-09-18T20:41:29.230Z,95944.16
2022-09-18T20:43:59.443Z,95944.81
2022-09-18T20:46:26.872Z,95942.15
2022-09-18T20:48:54.599Z,95937.44
2022-09-18T20:51:25.920Z,95933.58
2022-09-18T20:53:56.630Z,95931.79
2022-09-18T20:56:25.887Z,95928.33
2022-09-18T20:58:53.760Z,95924.94
2022-09-18T21:01:23.457Z,95926.53
2022-09-18T21:03:59.081Z,95924.29
2022-09-18T21:06:30.933Z,95927.48
2022-09-18T21:08:58.328Z,95928.84
2022-09-18T21:11:27.620Z,95926.17
2022-09-18T21:13:56.893Z,95926.52
2022-09-18T21:16:25.360Z,95923.88
2022-09-18T21:18:56.012Z,95918.86
2022-09-18T21:21:23.895Z,95919.09
2022-09-18T21:23:53.585Z,95923.92
2022-09-18T21:26:21.630Z,95921.33
2022-09-18T21:29:00.138Z,95922.60
2022-09-18T21:31:27.864Z,95925.52
2022-09-18T21:33:55.157Z,95921.19
2022-09-18T21:36:23.398Z,95918.25
2022-09-18T21:38:50.780Z,95919.37
2022-09-18T21:41:19.652Z,95918.98
2022-09-18T21:43:46.713Z,95930.41
2022-09-18T21:46:18.291Z,95941.86
2022-09-18T21:48:46.827Z,95944.13
2022-09-18T21:51:15.656Z,95944.80
2022-09-18T21:53:43.294Z,95946.02
2022-09-18T21:56:15.145Z,95944.85
2022-09-18T21:58:44.368Z,95943.94
2022-09-18T22:01:15.365Z,95939.47
2022-09-18T22:03:52.638Z,95943.86
2022-09-18T22:06:21.370Z,95944.45
2022-09-18T22:08:49.674Z,95947.46
2022-09-18T22:11:19.582Z,95951.90
2022-09-18T22:13:46.490Z,95945.23
2022-09-18T22:16:13.469Z,95943.38
2022-09-18T22:18:40.330Z,95940.71
2022-09-18T22:21:27.761Z,95942.80
2022-09-18T22:23:57.005Z,95946.39
2022-09-18T22:26:25.775Z,95945.85
2022-09-18T22:28:55.522Z,95943.08
2022-09-18T22:31:23.699Z,95944.99
2022-09-18T22:33:56.956Z,95938.81
2022-09-18T22:36:24.836Z,95939.78
2022-09-18T22:38:52.396Z,95936.18
2022-09-18T22:41:19.599Z,95940.15
2022-09-18T22:43:46.432Z,95939.16
2022-09-18T22:46:15.847Z,95937.20
2022-09-18T22:48:42.887Z,95937.15
2022-09-18T22:51:13.071Z,95939.20
2022-09-18T22:53:45.770Z,95941.30
2022-09-18T22:56:14.042Z,95942.48
2022-09-18T22:58:41.389Z,95942.58
2022-09-18T23:01:15.124Z,95936.64
2022-09-18T23:03:42.003Z,95938.00
2022-09-18T23:06:10.155Z,95940.21
2022-09-18T23:08:37.337Z,95941.11
2022-09-18T23:11:08.904Z,95937.46
2022-09-18T23:13:37.155Z,95931.62
2022-09-18T23:16:11.587Z,95936.19
2022-09-18T23:18:39.781Z,95938.45
2022-09-18T23:21:27.976Z,95933.48
2022-09-18T23:23:55.882Z,95922.77
2022-09-18T23:26:26.549Z,95920.63
2022-09-18T23:28:57.078Z,95919.62
2022-09-18T23:31:27.506Z,95916.05
2022-09-18T23:33:56.549Z,95914.87
2022-09-18T23:36:27.386Z,95914.58
2022-09-18T23:39:00.610Z,95918.48
2022-09-18T23:41:33.561Z,95915.86
2022-09-18T23:44:01.599Z,95923.51
2022-09-18T23:46:29.013Z,95928.22
2022-09-18T23:49:00.178Z,95929.05
2022-09-18T23:51:45.676Z,95931.27
2022-09-18T23:54:16.606Z,95932.84
2022-09-18T23:56:45.458Z,95931.02
2022-09-18T23:59:14.110Z,95931.38
